Meteo Giornale » Osservazioni meteo Stati Uniti (USA) » Knoxville McGhee Tyson
ore: 03:53 - Osservazioni Meteo Knoxville McGhee Tyson
Lat. 35° 49' N Lon. 83° 59' W Alt. 299 metri s.l.m.
23 °C
Sereno
Temp. 24 Ore
22 °C
33 °C
Nord
0 Km/h
Dew point 21 °C
Umidità 88 %
Visibilità 10 Km
Il sole sorge alle ore 07:08
Il sole tramonta alle ore 20:03
| Data e Ora | Cielo e Fenomeni | T °C | DP °C | Um. % | Pres. hPa | Vis. km | Vento km/h | |
|---|---|---|---|---|---|---|---|---|
| Oggi h: 03:53 | Sereno | 23 | 21 | 88 | 1019 | 10 | N 0 | |
| Oggi h: 02:53 | Sereno | 23 | 22 | 94 | 1020 | 10 | N 0 | |
| Oggi h: 01:53 | Sereno | 24 | 22 | 88 | 1020 | 10 | N 5.5 | |
| Oggi h: 00:53 | Poco Nuvoloso | 25 | 22 | 83 | 1020 | 10 | N 0 | |
| Ieri h: 23:53 | Poco Nuvoloso | 26 | 22 | 78 | 1019 | 10 | N 0 | |
| Ieri h: 23:23 | Poco Nuvoloso | 26 | 22 | 78 | 1019 | 10 | N 0 | |
| Ieri h: 22:53 | Sereno | 26 | 22 | 78 | 1019 | 10 | N 5.5 | |
| Ieri h: 21:53 | Sereno | 27 | 22 | 74 | 1019 | 10 | N 5.5 | |
| Ieri h: 20:53 | Sereno | 29 | 22 | 66 | 1019 | 10 | N 0 | |
| Ieri h: 19:53 | Nuvoloso | 31 | 20 | 52 | 1018 | 10 | N 5.5 | |
| Ieri h: 18:53 | Nuvoloso | 32 | 19 | 46 | 1019 | 10 | E 9.3 | |
| Ieri h: 17:53 | Nuvoloso | 32 | 19 | 46 | 1019 | 10 | O/NO 7.4 | |
| Ieri h: 16:53 | Nuvoloso | 33 | 17 | 38 | 1019 | 10 | N 9.3 | |
| Ieri h: 15:53 | Nuvoloso | 33 | 20 | 46 | 1020 | 10 | N 9.3 | |
| Ieri h: 14:53 | Molto Nuvoloso | 32 | 21 | 52 | 1020 | 10 | N 5.5 | |
| Ieri h: 13:53 | Nuvoloso | 32 | 21 | 52 | 1021 | 10 | O 7.4 | |
| Ieri h: 12:53 | Molto Nuvoloso | 31 | 21 | 55 | 1021 | 10 | O 7.4 | |
| Ieri h: 11:53 | Poco Nuvoloso | 29 | 21 | 62 | 1022 | 10 | S/SO 9.3 | |
| Ieri h: 10:53 | Nuvoloso | 29 | 22 | 66 | 1022 | 10 | N 0 | |
| Ieri h: 09:53 | Poco Nuvoloso | 27 | 22 | 74 | 1022 | 10 | N 0 | |
| Ieri h: 08:53 | Poco Nuvoloso | 24 | 22 | 88 | 1022 | 10 | N 0 | |
| Ieri h: 07:53 | Poco Nuvoloso | 22 | 21 | 94 | 1021 | 10 | N 0 | |
| Ieri h: 06:53 | Poco Nuvoloso | 22 | 21 | 94 | 1021 | 10 | N 0 | |
| Ieri h: 05:53 | Sereno | 22 | 21 | 94 | 1020 | 10 | N 0 | |
| Ieri h: 04:53 | Poco Nuvoloso | 23 | 21 | 88 | 1020 | 10 | NE 7.4 | |



